Time,TemperatureF,DewpointF,PressureIn,WindDirection,WindDirectionDegrees,WindSpeedMPH,WindSpeedGustMPH,Humidity,HourlyPrecipIn,Conditions,Clouds,dailyrainin,SoftwareType,DateUTC
2013-11-28 00:03:00,30.0,29.0,30.58,North,7,0.0,0.0,98,0.00,,,0.00,,2013-11-28 06:03:00,
2013-11-28 00:22:00,29.0,29.0,30.57,North,7,0.0,0.0,98,0.00,,,0.00,,2013-11-28 06:22:00,
2013-11-28 00:42:00,29.0,29.0,30.57,North,7,0.0,0.0,98,0.00,,,0.00,,2013-11-28 06:42:00,
2013-11-28 00:52:00,29.0,29.0,30.57,North,7,0.0,0.0,98,0.00,,,0.00,,2013-11-28 06:52:00,
2013-11-28 01:11:00,28.0,28.0,30.57,North,7,0.0,0.0,99,0.00,,,0.00,,2013-11-28 07:11:00,
2013-11-28 01:21:00,28.0,28.0,30.57,North,7,0.0,0.0,99,0.00,,,0.00,,2013-11-28 07:21:00,
2013-11-28 01:42:00,28.0,28.0,30.57,North,7,0.0,0.0,99,0.00,,,0.00,,2013-11-28 07:42:00,
2013-11-28 01:52:00,28.0,28.0,30.57,North,7,0.0,0.0,99,0.00,,,0.00,,2013-11-28 07:52:00,
2013-11-28 02:11:00,28.0,28.0,30.56,North,7,0.0,0.0,99,0.00,,,0.00,,2013-11-28 08:11:00,
2013-11-28 02:21:00,28.0,28.0,30.56,North,7,0.0,0.0,99,0.00,,,0.00,,2013-11-28 08:21:00,
2013-11-28 02:53:00,29.0,29.0,30.57,North,7,0.0,0.0,99,0.00,,,0.00,,2013-11-28 08:53:00,
2013-11-28 03:02:00,29.0,29.0,30.57,North,7,0.0,0.0,99,0.00,,,0.00,,2013-11-28 09:02:00,
2013-11-28 03:11:00,29.0,29.0,30.57,North,7,0.0,0.0,99,0.00,,,0.00,,2013-11-28 09:11:00,
2013-11-28 03:21:00,29.0,29.0,30.57,North,7,0.0,0.0,99,0.00,,,0.00,,2013-11-28 09:21:00,
2013-11-28 03:53:00,29.0,29.0,30.57,ENE,62,0.0,3.0,99,0.00,,,0.00,,2013-11-28 09:53:00,
2013-11-28 04:23:00,30.0,29.0,30.56,ENE,69,0.0,0.0,98,0.00,,,0.00,,2013-11-28 10:23:00,
2013-11-28 04:43:00,29.0,29.0,30.58,ENE,69,0.0,0.0,98,0.00,,,0.00,,2013-11-28 10:43:00,
2013-11-28 04:52:00,29.0,29.0,30.58,ENE,69,0.0,0.0,98,0.00,,,0.00,,2013-11-28 10:52:00,
2013-11-28 05:22:00,28.0,28.0,30.59,ENE,69,0.0,0.0,98,0.00,,,0.00,,2013-11-28 11:22:00,
2013-11-28 05:52:00,27.0,27.0,30.59,ENE,69,0.0,0.0,99,0.00,,,0.00,,2013-11-28 11:52:00,
2013-11-28 06:12:00,27.0,27.0,30.60,ENE,69,0.0,0.0,99,0.00,,,0.00,,2013-11-28 12:12:00,
2013-11-28 06:21:00,27.0,27.0,30.60,ENE,69,0.0,0.0,99,0.00,,,0.00,,2013-11-28 12:21:00,
2013-11-28 06:32:00,27.0,27.0,30.60,ENE,69,0.0,0.0,99,0.00,,,0.00,,2013-11-28 12:32:00,
2013-11-28 06:52:00,28.0,28.0,30.61,ENE,69,0.0,0.0,98,0.00,,,0.00,,2013-11-28 12:52:00,
2013-11-28 07:11:00,28.0,28.0,30.62,ENE,69,0.0,0.0,99,0.00,,,0.00,,2013-11-28 13:11:00,
2013-11-28 07:21:00,28.0,28.0,30.62,ENE,69,0.0,0.0,99,0.00,,,0.00,,2013-11-28 13:21:00,
2013-11-28 07:42:00,29.0,29.0,30.63,ENE,69,0.0,0.0,99,0.00,,,0.00,,2013-11-28 13:42:00,
2013-11-28 07:52:00,29.0,29.0,30.63,ENE,69,0.0,0.0,99,0.00,,,0.00,,2013-11-28 13:52:00,
2013-11-28 08:22:00,33.0,31.0,30.61,East,92,2.0,6.0,94,0.00,,,0.00,,2013-11-28 14:22:00,
2013-11-28 08:52:00,35.0,33.0,30.61,ENE,72,2.0,7.0,91,0.00,,,0.00,,2013-11-28 14:52:00,
2013-11-28 09:12:00,35.0,32.0,30.61,East,97,1.0,7.0,90,0.00,,,0.00,,2013-11-28 15:12:00,
2013-11-28 09:21:00,35.0,32.0,30.61,East,97,1.0,7.0,90,0.00,,,0.00,,2013-11-28 15:21:00,
2013-11-28 09:54:00,38.0,34.0,30.61,ESE,113,3.0,7.0,84,0.00,,,0.00,,2013-11-28 15:54:00,
2013-11-28 10:23:00,39.0,33.0,30.60,ENE,73,2.0,6.0,80,0.00,,,0.00,,2013-11-28 16:23:00,
2013-11-28 10:43:00,41.0,34.0,30.60,SE,142,3.0,7.0,77,0.00,,,0.00,,2013-11-28 16:43:00,
2013-11-28 10:53:00,41.0,34.0,30.60,SE,142,3.0,7.0,77,0.00,,,0.00,,2013-11-28 16:53:00,
2013-11-28 11:12:00,42.0,33.0,30.58,SSE,147,3.0,6.0,70,0.00,,,0.00,,2013-11-28 17:12:00,
2013-11-28 11:23:00,42.0,33.0,30.58,SSE,147,3.0,6.0,70,0.00,,,0.00,,2013-11-28 17:23:00,
2013-11-28 11:52:00,45.0,34.0,30.56,SE,145,0.0,2.0,66,0.00,,,0.00,,2013-11-28 17:52:00,
2013-11-28 12:22:00,45.0,33.0,30.53,West,263,0.0,2.0,63,0.00,,,0.00,,2013-11-28 18:22:00,
2013-11-28 12:52:00,46.0,33.0,30.53,NW,316,0.0,3.0,60,0.00,,,0.00,,2013-11-28 18:52:00,
2013-11-28 13:42:00,48.0,35.0,30.50,NNE,21,1.0,5.0,60,0.00,,,0.00,,2013-11-28 19:42:00,
2013-11-28 13:52:00,48.0,35.0,30.50,NNE,21,1.0,5.0,60,0.00,,,0.00,,2013-11-28 19:52:00,
2013-11-28 14:11:00,47.0,34.0,30.49,North,7,0.0,5.0,61,0.00,,,0.00,,2013-11-28 20:11:00,
2013-11-28 14:21:00,47.0,34.0,30.49,North,7,0.0,5.0,61,0.00,,,0.00,,2013-11-28 20:21:00,
2013-11-28 14:52:00,47.0,33.0,30.50,NNE,16,0.0,3.0,57,0.00,,,0.00,,2013-11-28 20:52:00,
2013-11-28 15:02:00,47.0,33.0,30.50,NNE,16,0.0,3.0,57,0.00,,,0.00,,2013-11-28 21:02:00,
2013-11-28 15:11:00,47.0,33.0,30.50,NNE,16,0.0,3.0,57,0.00,,,0.00,,2013-11-28 21:11:00,
2013-11-28 15:21:00,47.0,33.0,30.50,NNE,16,0.0,3.0,57,0.00,,,0.00,,2013-11-28 21:21:00,
2013-11-28 15:53:00,49.0,35.0,30.49,NNE,14,1.0,5.0,58,0.00,,,0.00,,2013-11-28 21:53:00,
2013-11-28 16:13:00,48.0,34.0,30.48,ENE,58,1.0,2.0,59,0.00,,,0.00,,2013-11-28 22:13:00,
2013-11-28 16:23:00,48.0,34.0,30.48,ENE,58,1.0,2.0,59,0.00,,,0.00,,2013-11-28 22:23:00,
2013-11-28 16:53:00,47.0,35.0,30.50,East,100,0.0,0.0,63,0.00,,,0.00,,2013-11-28 22:53:00,
2013-11-28 17:12:00,46.0,35.0,30.50,East,100,0.0,0.0,65,0.00,,,0.00,,2013-11-28 23:12:00,
2013-11-28 17:21:00,46.0,35.0,30.50,East,100,0.0,0.0,65,0.00,,,0.00,,2013-11-28 23:21:00,
2013-11-28 17:52:00,42.0,35.0,30.52,East,100,0.0,0.0,76,0.00,,,0.00,,2013-11-28 23:52:00,
2013-11-28 18:02:00,42.0,35.0,30.52,East,100,0.0,0.0,76,0.00,,,0.00,,2013-11-29 00:02:00,
2013-11-28 18:21:00,39.0,35.0,30.55,East,100,0.0,0.0,84,0.00,,,0.00,,2013-11-29 00:21:00,
2013-11-28 18:42:00,38.0,35.0,30.55,East,100,0.0,0.0,89,0.00,,,0.00,,2013-11-29 00:42:00,
2013-11-28 18:52:00,38.0,35.0,30.55,East,100,0.0,0.0,89,0.00,,,0.00,,2013-11-29 00:52:00,
2013-11-28 19:11:00,36.0,34.0,30.57,East,100,0.0,0.0,93,0.00,,,0.00,,2013-11-29 01:11:00,
2013-11-28 19:21:00,36.0,34.0,30.57,East,100,0.0,0.0,93,0.00,,,0.00,,2013-11-29 01:21:00,
2013-11-28 19:42:00,35.0,34.0,30.58,East,100,0.0,0.0,95,0.00,,,0.00,,2013-11-29 01:42:00,
2013-11-28 19:52:00,35.0,34.0,30.58,East,100,0.0,0.0,95,0.00,,,0.00,,2013-11-29 01:52:00,
2013-11-28 20:12:00,33.0,32.0,30.60,East,100,0.0,0.0,97,0.00,,,0.00,,2013-11-29 02:12:00,
2013-11-28 20:21:00,33.0,32.0,30.60,East,100,0.0,0.0,97,0.00,,,0.00,,2013-11-29 02:21:00,
2013-11-28 20:52:00,33.0,32.0,30.61,East,100,0.0,0.0,98,0.00,,,0.00,,2013-11-29 02:52:00,
2013-11-28 21:11:00,32.0,32.0,30.62,East,100,0.0,0.0,98,0.00,,,0.00,,2013-11-29 03:11:00,
2013-11-28 21:21:00,32.0,32.0,30.62,East,100,0.0,0.0,98,0.00,,,0.00,,2013-11-29 03:21:00,
2013-11-28 21:53:00,31.0,31.0,30.63,East,100,0.0,0.0,98,0.00,,,0.00,,2013-11-29 03:53:00,
2013-11-28 22:03:00,31.0,31.0,30.63,East,100,0.0,0.0,98,0.00,,,0.00,,2013-11-29 04:03:00,
2013-11-28 22:13:00,31.0,31.0,30.63,East,100,0.0,0.0,98,0.00,,,0.00,,2013-11-29 04:13:00,
2013-11-28 22:23:00,31.0,31.0,30.63,East,100,0.0,0.0,98,0.00,,,0.00,,2013-11-29 04:23:00,
2013-11-28 22:43:00,30.0,30.0,30.65,East,100,0.0,0.0,99,0.00,,,0.00,,2013-11-29 04:43:00,
2013-11-28 22:52:00,30.0,30.0,30.65,East,100,0.0,0.0,99,0.00,,,0.00,,2013-11-29 04:52:00,
2013-11-28 23:22:00,30.0,30.0,30.65,NNE,16,0.0,0.0,99,0.00,,,0.00,,2013-11-29 05:22:00,
2013-11-28 23:53:00,29.0,29.0,30.66,NNE,16,0.0,0.0,99,0.00,,,0.00,,2013-11-29 05:53:00,